Seaton, IL (61476)

12:01 PM CDT on March 29, 2017 (GMT -0500)
KILALEDO2 | | Change Station

Elev 735 ft 41.20 °N, 90.76 °W | Updated 3 seconds ago

Rain
Rain
45.1 °F
Feels Like 41 °F
N
7.4
Wind Variable Wind from SE
Gusts 7.4 mph

Today
High -- | Low -- °F
--% Chance of Precip.
Yesterday
High -- | Low -- °F
Precip. -- in
Pressure 30.06 in
Visibility 3.0 miles
Clouds Scattered Clouds 1000 ft
Scattered Clouds 2300 ft
Overcast 7000 ft
Windchill 41 °F
Dew Point 42 °F
Humidity 89%
Rainfall 0.22 in
Snow Depth Not available.
6:50 AM 7:25 PM
Waxing Crescent, 4% visible
METAR KGBG 291655Z AUTO 08016G24KT 3SM RA SCT010 SCT023 OVC070 07/06 A3006 RMK AO2 P0014 T00660058
Pressure 30.06 in
Visibility 3.0 miles
Clouds Scattered Clouds 1000 ft
Scattered Clouds 2300 ft
Overcast 7000 ft
Windchill 41 °F
Dew Point 42 °F
Humidity 89%
Rainfall 0.22 in
Snow Depth Not available.
6:50 AM 7:25 PM
Waxing Crescent, 4% visible
METAR KGBG 291655Z AUTO 08016G24KT 3SM RA SCT010 SCT023 OVC070 07/06 A3006 RMK AO2 P0014 T00660058

Get Severe Weather Alerts

Thanks for signing up!

Be on the lookout for a verification email in your inbox.

You'll start receiving the daily forecast at 8 AM.

×

10-Day Weather Forecast

Almanac

Astronomy

Mar. 29, 2017 Rise Set
Actual Time
Civil Twilight
Nautical Twilight
Astronomical Twilight
Moon
Length of Visible Light
Length of Day
Tomorrow will be .
, % of the Moon is Illuminated

Today's Extremes

State Highs State Lows

Community

WunderPhotos

Upload Photos

1,962,540 photos uploaded!

WunderBlog® & News

Nearby

Air Quality

  Air Quality AQ Index Pollutant
Not available.

Snow Depth

Station Depth Elevation

Earthquake Activity

City Distance Mag. Time & Date
Minimum magnitude displayed is 2.5.

Earthquake Activity

City Distance Mag. Time & Date
Minimum magnitude displayed is 2.5.

Coastal Water Temperatures

Place Temperature

Stations

Nearby Weather Stations

Station Location Temp. Windchill Dew Point Humidity Wind Precip. Elev Updated Type
                   

Watches & Warnings

There are currently no watches in effect.